createdAt,value
2018-02-06T00:00:22.766Z,22.00
2018-02-06T00:02:51.488Z,23.08
2018-02-06T00:05:21.176Z,24.05
2018-02-06T00:07:49.851Z,22.90
2018-02-06T00:10:18.644Z,22.62
2018-02-06T00:12:48.010Z,18.92
2018-02-06T00:15:16.665Z,23.00
2018-02-06T00:17:45.457Z,24.50
2018-02-06T00:20:14.139Z,22.02
2018-02-06T00:22:50.770Z,24.58
2018-02-06T00:25:21.180Z,22.17
2018-02-06T00:27:50.023Z,23.05
2018-02-06T00:30:18.734Z,22.45
2018-02-06T00:32:48.645Z,22.98
2018-02-06T00:35:17.356Z,20.37
2018-02-06T00:37:46.033Z,23.48
2018-02-06T00:40:15.089Z,23.30
2018-02-06T00:42:46.997Z,22.35
2018-02-06T00:45:15.817Z,24.45
2018-02-06T00:47:44.462Z,22.73
2018-02-06T00:50:13.120Z,23.02
2018-02-06T00:52:42.690Z,23.30
2018-02-06T00:55:11.314Z,21.67
2018-02-06T00:57:41.373Z,24.95
2018-02-06T01:00:11.401Z,24.37
2018-02-06T01:02:41.385Z,24.60
2018-02-06T01:05:17.955Z,23.92
2018-02-06T01:07:46.712Z,23.52
2018-02-06T01:10:15.383Z,23.52
2018-02-06T01:12:46.115Z,22.35
2018-02-06T01:15:14.874Z,23.25
2018-02-06T01:17:44.487Z,22.37
2018-02-06T01:20:13.243Z,25.00
2018-02-06T01:22:41.926Z,23.00
2018-02-06T01:25:10.795Z,23.58
2018-02-06T01:27:39.465Z,24.00
2018-02-06T01:30:08.848Z,22.30
2018-02-06T01:32:37.563Z,23.38
2018-02-06T01:35:06.330Z,25.52
2018-02-06T01:37:35.852Z,23.50
2018-02-06T01:40:05.282Z,23.25
2018-02-06T01:42:34.354Z,23.55
2018-02-06T01:45:03.275Z,22.73
2018-02-06T01:47:32.538Z,24.05
2018-02-06T01:50:05.586Z,23.55
2018-02-06T01:52:34.399Z,23.65
2018-02-06T01:55:03.094Z,25.67
2018-02-06T01:57:31.776Z,22.30
2018-02-06T02:00:00.566Z,23.48
2018-02-06T02:02:31.287Z,25.70
2018-02-06T02:05:00.899Z,24.10
2018-02-06T02:07:29.633Z,24.75
2018-02-06T02:09:59.096Z,23.50
2018-02-06T02:12:27.818Z,24.45
2018-02-06T02:14:56.506Z,24.27
2018-02-06T02:17:33.182Z,22.95
2018-02-06T02:20:02.613Z,24.23
2018-02-06T02:22:32.141Z,25.40
2018-02-06T02:25:01.120Z,26.85
2018-02-06T02:27:30.493Z,23.12
2018-02-06T02:29:59.225Z,22.35
2018-02-06T02:32:27.864Z,27.40
2018-02-06T02:34:56.589Z,25.30
2018-02-06T02:37:26.056Z,23.23
2018-02-06T02:39:55.023Z,22.58
2018-02-06T04:39:13.945Z,27.23
2018-02-06T04:41:42.726Z,27.00
2018-02-06T04:44:11.759Z,27.45
2018-02-06T04:46:40.474Z,27.20
2018-02-06T04:49:09.679Z,27.17
2018-02-06T04:51:38.592Z,28.38
2018-02-06T04:54:07.308Z,26.98
2018-02-06T04:56:35.983Z,29.02
2018-02-06T04:59:04.722Z,29.85
2018-02-06T05:01:33.363Z,24.55
2018-02-06T05:04:03.574Z,27.08
2018-02-06T05:06:32.384Z,26.05
2018-02-06T05:09:01.816Z,27.60
2018-02-06T05:11:31.559Z,28.87
2018-02-06T05:14:00.246Z,27.92
2018-02-06T05:16:28.907Z,31.65
2018-02-06T05:18:57.630Z,28.62
2018-02-06T05:21:26.315Z,29.08
2018-02-06T05:23:55.033Z,27.48
2018-02-06T05:26:23.659Z,31.02
2018-02-06T05:28:52.338Z,26.60
2018-02-06T05:31:22.000Z,30.23
2018-02-06T05:33:51.255Z,25.88
2018-02-06T05:36:20.783Z,27.52
2018-02-06T05:38:49.429Z,25.88
2018-02-06T05:41:18.882Z,27.60
2018-02-06T05:43:48.026Z,26.37
2018-02-06T05:46:16.783Z,28.60
2018-02-06T05:48:45.533Z,25.70
2018-02-06T05:51:14.975Z,24.27
2018-02-06T05:53:45.414Z,26.23
2018-02-06T05:56:14.504Z,25.27
2018-02-06T05:58:43.947Z,25.40
2018-02-06T06:01:12.796Z,25.33
2018-02-06T06:03:41.451Z,25.77
2018-02-06T06:06:10.180Z,23.80
2018-02-06T06:08:39.006Z,27.25
2018-02-06T06:11:07.726Z,23.15
2018-02-06T06:13:37.310Z,23.12
2018-02-06T06:16:05.982Z,25.08
2018-02-06T06:18:34.683Z,25.67
2018-02-06T06:21:03.444Z,25.42
2018-02-06T06:23:32.179Z,28.50
2018-02-06T06:26:02.442Z,27.13
2018-02-06T06:28:31.962Z,25.98
2018-02-06T06:31:00.624Z,26.33
2018-02-06T06:33:29.290Z,25.33
2018-02-06T06:35:59.366Z,25.10
2018-02-06T06:38:28.208Z,26.92
2018-02-06T06:40:56.925Z,27.02
2018-02-06T06:43:25.715Z,26.35
2018-02-06T06:46:06.980Z,27.80
2018-02-06T06:48:35.898Z,26.10
2018-02-06T06:51:06.184Z,22.62
2018-02-06T06:53:34.937Z,26.55
2018-02-06T06:56:03.949Z,27.27
2018-02-06T06:58:32.587Z,28.70
2018-02-06T07:01:01.373Z,29.17
2018-02-06T07:03:30.471Z,27.17
2018-02-06T07:05:59.781Z,26.40
2018-02-06T07:08:31.980Z,25.37
2018-02-06T07:11:01.564Z,27.10
2018-02-06T07:13:31.004Z,25.73
2018-02-06T07:15:59.746Z,24.30
2018-02-06T07:18:28.756Z,25.30
2018-02-06T07:20:57.483Z,22.20
2018-02-06T07:23:26.759Z,27.23
2018-02-06T07:25:55.383Z,26.10
2018-02-06T07:28:24.869Z,25.95
2018-02-06T07:30:55.119Z,22.90
2018-02-06T07:33:26.479Z,24.98
2018-02-06T07:35:55.591Z,23.12
2018-02-06T07:38:24.763Z,22.45
2018-02-06T07:40:54.498Z,24.10
2018-02-06T07:43:23.972Z,22.92
2018-02-06T07:45:53.543Z,22.45
2018-02-06T07:48:23.395Z,23.67
2018-02-06T07:50:52.918Z,22.23
2018-02-06T07:53:22.600Z,22.50
2018-02-06T07:55:51.334Z,21.73
2018-02-06T07:58:20.099Z,19.95
2018-02-06T08:00:48.799Z,24.60
2018-02-06T08:03:18.417Z,22.83
2018-02-06T08:05:47.129Z,23.90
2018-02-06T08:08:15.821Z,22.92
2018-02-06T08:10:45.038Z,22.52
2018-02-06T08:13:13.823Z,22.85
2018-02-06T08:15:44.557Z,21.30
2018-02-06T08:18:13.970Z,19.40
2018-02-06T08:20:42.633Z,21.25
2018-02-06T08:23:11.532Z,21.00
2018-02-06T08:25:40.411Z,21.55
2018-02-06T08:28:09.070Z,18.90
2018-02-06T08:30:37.768Z,21.17
2018-02-06T08:33:06.407Z,21.85
2018-02-06T08:35:35.210Z,22.67
2018-02-06T08:38:03.932Z,23.12
2018-02-06T08:40:32.563Z,23.92
2018-02-06T08:43:01.226Z,22.33
2018-02-06T08:45:30.125Z,21.40
2018-02-06T08:47:59.121Z,21.98
2018-02-06T08:50:29.637Z,23.80
2018-02-06T08:52:58.466Z,23.42
2018-02-06T08:55:27.320Z,22.77
2018-02-06T08:57:56.429Z,21.92
2018-02-06T09:00:26.097Z,20.92
2018-02-06T09:02:55.251Z,24.50
2018-02-06T09:05:24.100Z,23.38
2018-02-06T09:07:52.848Z,21.50
2018-02-06T09:10:21.588Z,21.42
2018-02-06T09:12:50.422Z,20.85
2018-02-06T09:15:19.181Z,22.95
2018-02-06T09:17:47.958Z,21.52
2018-02-06T09:20:16.868Z,21.65
2018-02-06T09:22:46.327Z,22.77
2018-02-06T09:25:15.712Z,20.52
2018-02-06T09:27:44.391Z,19.83
2018-02-06T09:30:13.034Z,21.62
2018-02-06T09:32:41.746Z,19.37
2018-02-06T09:35:10.444Z,20.77
2018-02-06T09:37:39.195Z,21.48
2018-02-06T09:40:08.641Z,20.58
2018-02-06T09:42:37.399Z,20.27
2018-02-06T09:45:06.106Z,21.70
2018-02-06T09:47:34.769Z,21.10
2018-02-06T09:50:03.450Z,22.00
2018-02-06T09:52:32.916Z,19.55
2018-02-06T09:55:02.318Z,22.35
2018-02-06T09:57:30.945Z,20.60
2018-02-06T09:59:59.592Z,20.37
2018-02-06T10:02:28.362Z,22.65
2018-02-06T10:04:57.128Z,21.50
2018-02-06T10:07:25.794Z,21.25
2018-02-06T10:09:54.502Z,20.95
2018-02-06T10:12:23.187Z,19.98
2018-02-06T10:14:52.615Z,19.15
2018-02-06T10:17:21.299Z,22.25
2018-02-06T10:19:50.758Z,22.95
2018-02-06T10:22:19.462Z,20.48
2018-02-06T10:24:48.202Z,22.33
2018-02-06T10:27:16.921Z,21.23
2018-02-06T10:29:46.323Z,21.20
2018-02-06T10:32:14.924Z,18.98
2018-02-06T10:34:43.599Z,21.75
2018-02-06T10:37:12.356Z,19.65
2018-02-06T10:39:41.014Z,21.50
2018-02-06T10:42:09.717Z,21.33
2018-02-06T10:44:38.433Z,21.10
2018-02-06T10:47:07.090Z,20.88
2018-02-06T10:49:36.199Z,21.37
2018-02-06T10:52:15.610Z,21.30
2018-02-06T10:54:44.262Z,22.33
2018-02-06T10:57:14.132Z,20.92
2018-02-06T10:59:42.862Z,19.90
2018-02-06T11:02:12.247Z,19.20
2018-02-06T11:04:41.698Z,19.58
2018-02-06T11:07:10.314Z,21.77
2018-02-06T11:09:38.926Z,21.05
2018-02-06T11:12:07.544Z,21.17
2018-02-06T11:14:36.967Z,20.75
2018-02-06T11:17:06.094Z,20.42
2018-02-06T11:19:46.493Z,20.62
2018-02-06T11:22:15.216Z,18.85
2018-02-06T11:24:43.846Z,20.05
2018-02-06T11:27:12.488Z,18.92
2018-02-06T11:29:41.887Z,19.33
2018-02-06T11:32:10.575Z,19.92
2018-02-06T11:34:39.338Z,26.00
2018-02-06T11:37:07.953Z,23.85
2018-02-06T11:39:37.433Z,24.23
2018-02-06T11:42:06.054Z,24.90
2018-02-06T11:44:34.739Z,19.23
2018-02-06T11:47:19.016Z,20.17
2018-02-06T11:49:47.725Z,18.87
2018-02-06T11:52:16.331Z,18.45
2018-02-06T11:54:45.063Z,20.15
2018-02-06T11:57:13.855Z,19.48
2018-02-06T11:59:46.480Z,18.83
2018-02-06T12:02:17.323Z,19.92
2018-02-06T12:04:46.125Z,20.10
2018-02-06T12:07:14.871Z,20.27
2018-02-06T12:09:43.617Z,20.65
2018-02-06T12:12:12.242Z,19.87
2018-02-06T12:14:41.722Z,19.80
2018-02-06T12:17:10.366Z,20.15
2018-02-06T12:19:39.091Z,19.83
2018-02-06T12:22:08.731Z,20.50
2018-02-06T12:24:37.389Z,20.05
2018-02-06T12:27:06.252Z,21.40
2018-02-06T12:29:35.643Z,19.50
2018-02-06T12:32:04.347Z,18.80
2018-02-06T12:34:33.260Z,20.43
2018-02-06T12:37:01.979Z,20.27
2018-02-06T12:39:30.711Z,18.80
2018-02-06T12:41:59.465Z,20.73
2018-02-06T12:44:28.143Z,21.00
2018-02-06T12:46:57.189Z,22.93
2018-02-06T12:49:26.248Z,20.30
2018-02-06T12:51:54.977Z,21.00
2018-02-06T12:54:24.754Z,19.83
2018-02-06T12:56:53.624Z,19.97
2018-02-06T12:59:22.366Z,23.03
2018-02-06T13:01:51.940Z,20.37
2018-02-06T13:04:20.790Z,19.90
2018-02-06T13:06:49.921Z,19.43
2018-02-06T13:09:18.721Z,20.00
2018-02-06T13:11:47.510Z,21.27
2018-02-06T13:14:16.310Z,20.20
2018-02-06T13:16:45.932Z,20.00
2018-02-06T13:19:14.668Z,22.30
2018-02-06T13:21:43.694Z,21.37
2018-02-06T13:24:12.478Z,21.70
2018-02-06T13:26:41.970Z,21.42
2018-02-06T13:29:11.055Z,20.98
2018-02-06T13:31:40.197Z,21.00
2018-02-06T13:34:09.177Z,21.85
2018-02-06T13:36:37.958Z,22.20
2018-02-06T13:39:06.586Z,22.20
2018-02-06T13:41:35.407Z,20.20
2018-02-06T13:44:05.090Z,22.17
2018-02-06T13:46:34.618Z,21.37
2018-02-06T13:49:04.203Z,22.53
2018-02-06T13:51:33.257Z,22.00
2018-02-06T13:54:02.359Z,22.48
2018-02-06T13:56:31.572Z,23.27
2018-02-06T13:59:00.312Z,23.57
2018-02-06T14:01:29.068Z,22.87
2018-02-06T14:03:57.745Z,22.05
2018-02-06T14:06:26.943Z,23.87
2018-02-06T14:08:57.394Z,23.00
2018-02-06T14:11:27.024Z,22.97
2018-02-06T14:13:56.107Z,24.90
2018-02-06T14:16:24.943Z,25.40
2018-02-06T14:18:53.758Z,24.40
2018-02-06T14:21:27.284Z,23.40
2018-02-06T14:23:57.292Z,24.23
2018-02-06T14:26:26.095Z,23.80
2018-02-06T14:28:54.953Z,24.20
2018-02-06T14:31:23.634Z,23.97
2018-02-06T14:33:52.509Z,23.10
2018-02-06T14:36:24.914Z,23.73
2018-02-06T14:38:53.671Z,22.97
2018-02-06T14:41:24.416Z,23.37
2018-02-06T14:43:53.791Z,25.93
2018-02-06T14:46:22.917Z,23.27
2018-02-06T14:48:51.933Z,23.58
2018-02-06T14:51:21.295Z,25.98
2018-02-06T14:53:51.178Z,25.77
2018-02-06T14:56:21.030Z,25.88
2018-02-06T14:58:50.787Z,25.33
2018-02-06T15:01:20.081Z,24.02
2018-02-06T15:03:49.606Z,23.65
2018-02-06T15:06:18.923Z,24.52
2018-02-06T15:08:48.470Z,25.10
2018-02-06T15:11:18.488Z,26.87
2018-02-06T15:13:47.208Z,24.15
2018-02-06T15:16:16.789Z,23.40
2018-02-06T15:18:45.554Z,24.80
2018-02-06T15:21:14.997Z,26.20
2018-02-06T15:23:44.389Z,23.27
2018-02-06T15:26:13.911Z,26.45
2018-02-06T15:28:42.669Z,24.75
2018-02-06T15:31:12.990Z,26.37
2018-02-06T15:33:43.610Z,26.40
2018-02-06T15:36:13.171Z,24.92
2018-02-06T15:38:41.884Z,23.87
2018-02-06T15:41:10.583Z,24.37
2018-02-06T15:43:39.525Z,24.98
2018-02-06T15:46:08.321Z,24.37
2018-02-06T15:48:37.528Z,24.80
2018-02-06T15:51:07.892Z,24.08
2018-02-06T15:53:37.493Z,24.15
2018-02-06T15:56:07.284Z,23.48
2018-02-06T15:58:37.371Z,23.67
2018-02-06T16:01:07.018Z,23.62
2018-02-06T16:03:35.726Z,24.67
2018-02-06T16:06:04.749Z,22.20
2018-02-06T16:08:33.852Z,22.05
2018-02-06T16:11:05.226Z,23.15
2018-02-06T16:13:34.162Z,24.35
2018-02-06T16:16:02.793Z,23.77
2018-02-06T16:18:32.210Z,24.00
2018-02-06T16:21:00.935Z,26.15
2018-02-06T16:23:31.149Z,24.63
2018-02-06T16:25:59.973Z,23.70
2018-02-06T16:28:28.801Z,25.37
2018-02-06T16:30:58.281Z,24.23
2018-02-06T16:33:27.014Z,23.85
2018-02-06T16:35:55.650Z,26.73
2018-02-06T16:38:24.400Z,27.00
2018-02-06T16:40:53.054Z,25.83
2018-02-06T16:43:21.712Z,26.08
2018-02-06T16:45:51.397Z,26.67
2018-02-06T16:48:20.807Z,22.85
2018-02-06T16:50:49.583Z,25.25
2018-02-06T16:53:18.208Z,25.52
2018-02-06T16:55:46.861Z,27.08
2018-02-06T16:58:15.569Z,24.48
2018-02-06T17:00:44.185Z,26.67
2018-02-06T17:03:14.088Z,25.37
2018-02-06T17:05:43.821Z,25.02
2018-02-06T17:08:13.027Z,24.92
2018-02-06T17:10:41.829Z,27.15
2018-02-06T17:13:10.582Z,27.08
2018-02-06T17:15:40.184Z,25.95
2018-02-06T17:18:08.898Z,26.33
2018-02-06T17:20:40.042Z,25.50
2018-02-06T17:23:09.666Z,26.10
2018-02-06T17:25:39.153Z,28.85
2018-02-06T17:28:07.954Z,29.20
2018-02-06T17:30:37.478Z,27.92
2018-02-06T17:33:06.100Z,28.52
2018-02-06T17:35:34.876Z,25.92
2018-02-06T17:38:03.496Z,28.65
2018-02-06T17:40:32.275Z,25.80
2018-02-06T17:43:00.911Z,27.50
2018-02-06T17:45:29.553Z,24.50
2018-02-06T17:47:59.239Z,25.77
2018-02-06T17:50:27.962Z,27.50
2018-02-06T17:52:56.806Z,29.63
2018-02-06T17:55:26.220Z,26.37
2018-02-06T17:57:54.960Z,27.77
2018-02-06T18:00:23.674Z,26.15
2018-02-06T18:02:52.304Z,27.30
2018-02-06T18:05:21.033Z,28.42
2018-02-06T18:07:49.675Z,29.05
2018-02-06T18:10:19.078Z,27.58
2018-02-06T18:12:48.653Z,27.87
2018-02-06T18:15:17.339Z,27.15
2018-02-06T18:17:47.070Z,25.98
2018-02-06T18:20:15.817Z,26.50
2018-02-06T18:22:44.460Z,24.63
2018-02-06T18:25:14.151Z,25.90
2018-02-06T18:27:42.808Z,29.98
2018-02-06T18:30:11.534Z,28.33
2018-02-06T18:32:40.856Z,29.50
2018-02-06T18:35:10.810Z,28.17
2018-02-06T18:37:40.446Z,26.10
2018-02-06T18:40:09.092Z,30.08
2018-02-06T18:42:38.823Z,31.98
2018-02-06T18:45:07.480Z,31.70
2018-02-06T18:47:36.954Z,32.10
2018-02-06T18:50:05.809Z,29.40
2018-02-06T18:52:34.706Z,29.02
2018-02-06T18:55:03.845Z,35.15
2018-02-06T18:57:32.564Z,31.08
2018-02-06T19:00:01.219Z,31.48
2018-02-06T19:02:30.072Z,29.67
2018-02-06T19:04:59.490Z,32.35
2018-02-06T19:07:28.307Z,30.52
2018-02-06T19:09:56.974Z,34.00
2018-02-06T19:12:25.786Z,35.45
2018-02-06T19:14:54.665Z,34.63
2018-02-06T19:17:23.354Z,34.08
2018-02-06T19:19:52.582Z,35.78
2018-02-06T19:22:21.188Z,39.30
2018-02-06T19:24:50.697Z,35.08
2018-02-06T19:27:19.537Z,38.50
2018-02-06T19:29:49.138Z,35.60
2018-02-06T19:32:17.975Z,37.28
2018-02-06T19:34:46.619Z,36.72
2018-02-06T19:37:16.147Z,35.17
2018-02-06T19:39:45.018Z,32.88
2018-02-06T19:42:17.446Z,34.65
2018-02-06T19:44:46.206Z,33.55
2018-02-06T19:47:15.371Z,34.08
2018-02-06T19:49:44.814Z,32.88
2018-02-06T19:52:15.446Z,34.22
2018-02-06T19:54:44.288Z,30.20
2018-02-06T19:57:13.008Z,32.72
2018-02-06T19:59:42.731Z,33.05
2018-02-06T20:02:11.688Z,34.70
2018-02-06T20:04:40.552Z,31.85
2018-02-06T20:07:09.406Z,31.12
2018-02-06T20:09:38.327Z,33.22
2018-02-06T20:12:07.043Z,34.72
2018-02-06T20:14:35.720Z,31.70
2018-02-06T20:17:06.020Z,32.35
2018-02-06T20:19:34.684Z,32.58
2018-02-06T20:22:03.662Z,34.28
2018-02-06T20:24:34.633Z,31.08
2018-02-06T20:27:04.159Z,29.37
2018-02-06T20:29:32.823Z,29.90
2018-02-06T20:32:01.518Z,30.85
2018-02-06T20:34:32.256Z,32.97
2018-02-06T20:37:00.949Z,32.63
2018-02-06T20:39:29.604Z,34.22
2018-02-06T20:41:59.662Z,31.45
2018-02-06T20:44:28.420Z,32.45
2018-02-06T20:46:58.532Z,33.20
2018-02-06T20:49:27.541Z,32.28
2018-02-06T20:51:57.259Z,31.90
2018-02-06T20:54:26.148Z,32.78
2018-02-06T20:56:54.791Z,34.35
2018-02-06T20:59:24.265Z,37.75
2018-02-06T21:01:53.466Z,32.33
2018-02-06T21:04:22.198Z,34.20
2018-02-06T21:06:52.598Z,33.55
2018-02-06T21:09:21.739Z,31.95
2018-02-06T21:11:51.245Z,35.20
2018-02-06T21:14:19.897Z,33.05
2018-02-06T21:16:48.599Z,31.45
2018-02-06T21:19:17.405Z,33.55
2018-02-06T21:21:46.108Z,33.90
2018-02-06T21:24:15.123Z,34.15
2018-02-06T21:26:43.831Z,33.50
2018-02-06T21:29:13.501Z,32.35
2018-02-06T21:31:42.394Z,34.90
2018-02-06T21:34:11.096Z,33.83
2018-02-06T21:36:39.948Z,33.67
2018-02-06T21:39:08.840Z,32.13
2018-02-06T21:41:38.559Z,30.25
2018-02-06T21:44:07.790Z,28.92
2018-02-06T21:46:38.572Z,28.60
2018-02-06T21:49:08.245Z,29.42
2018-02-06T21:51:38.565Z,28.38
2018-02-06T21:54:08.797Z,28.45
2018-02-06T21:56:37.629Z,28.17
2018-02-06T21:59:08.898Z,29.70
2018-02-06T22:01:39.856Z,31.55
2018-02-06T22:04:09.663Z,32.95
2018-02-06T22:06:40.535Z,32.72
2018-02-06T22:09:09.375Z,32.00
2018-02-06T22:11:38.284Z,30.98
2018-02-06T22:14:07.915Z,28.83
2018-02-06T22:16:37.237Z,33.63
2018-02-06T22:19:06.019Z,34.35
2018-02-06T22:21:36.079Z,34.22
2018-02-06T22:24:05.710Z,35.47
2018-02-06T22:26:34.665Z,31.45
2018-02-06T22:29:04.168Z,33.72
2018-02-06T22:31:33.620Z,33.55
2018-02-06T22:34:02.400Z,31.15
2018-02-06T22:36:31.190Z,34.90
2018-02-06T22:38:59.906Z,34.58
2018-02-06T22:41:28.631Z,31.98
2018-02-06T22:43:58.019Z,34.85
2018-02-06T22:46:26.665Z,36.03
2018-02-06T22:48:56.101Z,33.67
2018-02-06T22:51:24.826Z,31.17
2018-02-06T22:53:53.933Z,34.97
2018-02-06T22:56:25.403Z,33.10
2018-02-06T22:58:54.630Z,33.90
2018-02-06T23:01:23.612Z,33.78
2018-02-06T23:03:56.722Z,32.88
2018-02-06T23:09:06.450Z,38.47
2018-02-06T23:11:35.211Z,39.10
2018-02-06T23:14:03.960Z,36.78
2018-02-06T23:16:32.733Z,34.38
2018-02-06T23:19:02.405Z,34.35
2018-02-06T23:21:32.168Z,34.75
2018-02-06T23:24:01.013Z,35.45
2018-02-06T23:26:31.736Z,33.75
2018-02-06T23:29:42.284Z,32.47
2018-02-06T23:32:24.802Z,28.73
2018-02-06T23:34:53.988Z,30.88
2018-02-06T23:37:24.062Z,33.17
2018-02-06T23:39:52.971Z,31.60
2018-02-06T23:42:21.953Z,33.55
2018-02-06T23:44:52.327Z,33.63
2018-02-06T23:47:21.899Z,32.67
